Weather Data

Pearl Creek Farm: 8878 N Farm Road 75, Walnut Grove MO 65770

<== Previous Day (Wednesday 23 Jan 2013) | Next Day (Friday 25 Jan 2013) ==>

Summary Precipitation Data For Thursday 24 January 2013

ElementValueUnits
Precipitation0"
Notes(none)
SourcePearl Creek Farm

Summary Temperature Data For Thursday 24 January 2013

ElementValueUnits
High Temperature36 oF
Low Temperature24 oF
Average Temperature31 oF
High Humidity71 %
Low Humidity49 %
Average Humidity60 %
SourcePearl Creek Farm

Detail Temperature Data For Thursday 24 January 2013

Date / TimeTemp (F)RH (%)Dew Pt (F)Report Date / TimeSource
2013-01-24 00:00:00 34 69 24.9 2013-01-27 10:51:56 Pearl Creek Farm
2013-01-24 00:30:00 33 70 24.1 2013-01-27 10:51:56 Pearl Creek Farm
2013-01-24 01:00:00 32 70 23.4 2013-01-27 10:51:56 Pearl Creek Farm
2013-01-24 01:30:00 31 69 22.1 2013-01-27 10:51:56 Pearl Creek Farm
2013-01-24 02:00:00 30 70 21.4 2013-01-27 10:51:56 Pearl Creek Farm
2013-01-24 02:30:00 29 67 19.5 2013-01-27 10:51:56 Pearl Creek Farm
2013-01-24 03:00:00 29 65 18.6 2013-01-27 10:51:56 Pearl Creek Farm
2013-01-24 03:30:00 29 66 18.9 2013-01-27 10:51:56 Pearl Creek Farm
2013-01-24 04:00:00 29 67 19.3 2013-01-27 10:51:56 Pearl Creek Farm
2013-01-24 04:30:00 28 68 18.8 2013-01-27 10:51:56 Pearl Creek Farm
2013-01-24 05:00:00 27 70 18.4 2013-01-27 10:51:56 Pearl Creek Farm
2013-01-24 05:30:00 27 71 18.7 2013-01-27 10:51:56 Pearl Creek Farm
2013-01-24 06:00:00 26 70 17.4 2013-01-27 10:51:56 Pearl Creek Farm
2013-01-24 06:30:00 25 67 15.6 2013-01-27 10:51:56 Pearl Creek Farm
2013-01-24 07:00:00 24 68 15.0 2013-01-27 10:51:56 Pearl Creek Farm
2013-01-24 07:30:00 24 69 15.2 2013-01-27 10:51:56 Pearl Creek Farm
2013-01-24 08:00:00 24 68 14.8 2013-01-27 10:51:56 Pearl Creek Farm
2013-01-24 08:30:00 24 68 14.8 2013-01-27 10:51:56 Pearl Creek Farm
2013-01-24 09:00:00 24 65 14.0 2013-01-27 10:51:56 Pearl Creek Farm
2013-01-24 09:30:00 25 65 14.8 2013-01-27 10:51:56 Pearl Creek Farm
2013-01-24 10:00:00 27 63 15.9 2013-01-27 10:51:56 Pearl Creek Farm
2013-01-24 10:30:00 27 61 15.4 2013-01-27 10:51:56 Pearl Creek Farm
2013-01-24 11:00:00 29 60 16.9 2013-01-27 10:51:56 Pearl Creek Farm
2013-01-24 11:30:00 31 58 18.0 2013-01-27 10:51:56 Pearl Creek Farm
2013-01-24 12:00:00 32 55 17.5 2013-01-27 10:51:56 Pearl Creek Farm
2013-01-24 12:30:00 33 53 17.8 2013-01-27 10:51:56 Pearl Creek Farm
2013-01-24 13:00:00 34 52 18.0 2013-01-27 10:51:56 Pearl Creek Farm
2013-01-24 13:30:00 35 51 18.5 2013-01-27 10:51:56 Pearl Creek Farm
2013-01-24 14:00:00 36 49 18.7 2013-01-27 10:51:56 Pearl Creek Farm
2013-01-24 14:30:00 36 51 19.4 2013-01-27 10:51:56 Pearl Creek Farm
2013-01-24 15:00:00 36 52 19.9 2013-01-27 10:51:56 Pearl Creek Farm
2013-01-24 15:30:00 36 52 20.1 2013-01-27 10:51:56 Pearl Creek Farm
2013-01-24 16:00:00 36 53 20.4 2013-01-27 10:51:56 Pearl Creek Farm
2013-01-24 16:30:00 35 51 18.5 2013-01-27 10:51:56 Pearl Creek Farm
2013-01-24 17:00:00 35 53 19.4 2013-01-27 10:51:56 Pearl Creek Farm
2013-01-24 17:30:00 35 53 19.6 2013-01-27 10:51:56 Pearl Creek Farm
2013-01-24 18:00:00 34 53 18.5 2013-01-27 10:51:56 Pearl Creek Farm
2013-01-24 18:30:00 34 54 18.9 2013-01-27 10:51:56 Pearl Creek Farm
2013-01-24 19:00:00 33 57 19.3 2013-01-27 10:51:56 Pearl Creek Farm
2013-01-24 19:30:00 33 55 18.4 2013-01-27 10:51:56 Pearl Creek Farm
2013-01-24 20:00:00 33 54 18.2 2013-01-27 10:51:56 Pearl Creek Farm
2013-01-24 20:30:00 33 58 19.7 2013-01-27 10:51:56 Pearl Creek Farm
2013-01-24 21:00:00 33 56 18.9 2013-01-27 10:51:56 Pearl Creek Farm
2013-01-24 21:30:00 32 54 17.1 2013-01-27 10:51:56 Pearl Creek Farm
2013-01-24 22:00:00 32 55 17.7 2013-01-27 10:51:56 Pearl Creek Farm
2013-01-24 22:30:00 32 56 17.9 2013-01-27 10:51:56 Pearl Creek Farm
2013-01-24 23:00:00 32 59 19.1 2013-01-27 10:51:56 Pearl Creek Farm
2013-01-24 23:30:00 32 61 20.1 2013-01-27 10:51:56 Pearl Creek Farm

A total of 48 rows are displayed.